Time;durP1;ratioP1;P1;durP2;ratioP2;P2;SDS_P1;SDS_P2;PMS_P1;PMS_P2;Temp;Humidity;BMP_temperature;BMP_pressure;BME280_temperature;BME280_humidity;BME280_pressure;Samples;Min_cycle;Max_cycle;Signal;HPM_P1;HPM_P2
2022/03/07 00:01:40;;;;;;;;;;;;;;;8.63;31.06;99769.12;4485386;31;33123;-63
2022/03/07 00:04:08;;;;;;;;;;;;;;;9.30;29.56;99777.06;4488413;31;35241;-63
2022/03/07 00:06:36;;;;;;;;;;;;;;;9.20;30.06;99771.50;4489226;31;33721;-64
2022/03/07 00:09:03;;;;;;;;;;;;;;;8.36;30.94;99771.78;4490970;31;33302;-64
2022/03/07 00:11:31;;;;;;;;;;;;;;;8.54;31.89;99773.28;4483895;31;34882;-63
2022/03/07 00:13:59;;;;;;;;;;;;;;;9.01;30.39;99784.41;4485391;31;34090;-64
2022/03/07 00:16:27;;;;;;;;;;;;;;;8.93;30.76;99778.75;4487240;31;34246;-64
2022/03/07 00:18:56;;;;;;;;;;;;;;;8.98;30.29;99779.28;4485290;31;32414;-64
2022/03/07 00:21:24;;;;;;;;;;;;;;;8.65;31.21;99771.72;4485640;31;34929;-64
2022/03/07 00:23:51;;;;;;;;;;;;;;;8.76;30.42;99779.84;4483368;31;34781;-63
2022/03/07 00:26:19;;;;;;;;;;;;;;;8.33;31.26;99780.00;4487346;31;34394;-64
2022/03/07 00:28:47;;;;;;;;;;;;;;;8.71;30.72;99782.00;4489795;31;32220;-63
2022/03/07 00:31:15;;;;;;;;;;;;;;;8.93;30.57;99789.44;4481935;31;34232;-63
2022/03/07 00:33:43;;;;;;;;;;;;;;;9.01;30.24;99793.25;4483004;31;35231;-64
2022/03/07 00:36:11;;;;;;;;;;;;;;;9.04;30.52;99790.38;4486578;31;32558;-64
2022/03/07 00:38:38;;;;;;;;;;;;;;;9.17;30.16;99789.56;4483039;31;32724;-64
2022/03/07 00:41:07;;;;;;;;;;;;;;;8.75;31.27;99784.34;4489150;31;34788;-64
2022/03/07 00:43:35;;;;;;;;;;;;;;;9.04;30.37;99787.72;4490231;31;33836;-64
2022/03/07 00:46:04;;;;;;;;;;;;;;;9.01;30.17;99787.94;4491939;31;34267;-64
2022/03/07 00:48:32;;;;;;;;;;;;;;;8.89;30.44;99785.22;4496133;31;32143;-63
2022/03/07 00:50:59;;;;;;;;;;;;;;;9.01;30.71;99781.75;4475361;31;34308;-64
2022/03/07 00:53:27;;;;;;;;;;;;;;;8.79;31.27;99783.16;4488948;31;32581;-63
2022/03/07 00:55:55;;;;;;;;;;;;;;;8.90;30.26;99784.28;4485513;31;33950;-63
2022/03/07 00:58:28;;;;;;;;;;;;;;;9.00;31.05;99782.72;4492111;31;33435;-63
2022/03/07 01:00:56;;;;;;;;;;;;;;;8.88;30.69;99783.53;4491244;31;35198;-63
2022/03/07 01:03:24;;;;;;;;;;;;;;;8.88;30.47;99771.03;4487761;31;34314;-63
2022/03/07 01:05:52;;;;;;;;;;;;;;;8.34;31.47;99774.53;4485295;31;34159;-63
2022/03/07 01:08:20;;;;;;;;;;;;;;;8.66;30.99;99768.09;4488604;31;34478;-63
2022/03/07 01:10:47;;;;;;;;;;;;;;;8.39;32.37;99763.63;4490869;31;34721;-66
2022/03/07 01:13:18;;;;;;;;;;;;;;;8.64;30.82;99765.53;4487708;31;34802;-64
2022/03/07 01:15:46;;;;;;;;;;;;;;;8.59;31.19;99763.16;4485820;31;32516;-63
2022/03/07 01:18:14;;;;;;;;;;;;;;;8.54;31.76;99770.63;4486691;31;33326;-65
2022/03/07 01:20:42;;;;;;;;;;;;;;;8.35;32.23;99762.94;4491705;31;33921;-65
2022/03/07 01:23:10;;;;;;;;;;;;;;;8.39;31.29;99759.13;4488785;31;35491;-64
2022/03/07 01:25:37;;;;;;;;;;;;;;;8.45;32.30;99763.22;4489836;31;35041;-63
2022/03/07 01:28:05;;;;;;;;;;;;;;;8.33;31.59;99759.50;4486137;31;33226;-63
2022/03/07 01:30:33;;;;;;;;;;;;;;;8.64;30.75;99762.88;4485158;31;34058;-63
2022/03/07 01:33:02;;;;;;;;;;;;;;;8.59;31.74;99768.50;4486516;31;34269;-63
2022/03/07 01:35:30;;;;;;;;;;;;;;;8.00;32.23;99759.03;4488775;31;34979;-63
2022/03/07 01:37:58;;;;;;;;;;;;;;;8.40;31.93;99768.00;4486622;31;32066;-63
2022/03/07 01:40:26;;;;;;;;;;;;;;;8.61;31.60;99757.72;4489075;31;35279;-63
2022/03/07 01:42:54;;;;;;;;;;;;;;;8.66;30.85;99762.75;4486182;31;38313;-63
2022/03/07 01:45:22;;;;;;;;;;;;;;;8.31;31.82;99752.56;4490980;31;34157;-63
2022/03/07 01:47:50;;;;;;;;;;;;;;;8.49;31.67;99753.22;4488950;31;33528;-63
2022/03/07 01:50:19;;;;;;;;;;;;;;;8.84;30.81;99758.84;4486494;31;33986;-63
2022/03/07 01:52:50;;;;;;;;;;;;;;;8.19;31.94;99756.03;4493259;31;34108;-65
2022/03/07 01:55:18;;;;;;;;;;;;;;;8.81;30.88;99757.25;4488798;31;34966;-63
2022/03/07 01:57:47;;;;;;;;;;;;;;;9.00;30.27;99753.34;4487410;31;34464;-63
2022/03/07 02:00:16;;;;;;;;;;;;;;;9.11;30.20;99758.78;4486363;31;33953;-63
2022/03/07 02:02:44;;;;;;;;;;;;;;;9.11;29.95;99761.47;4486987;31;34433;-65
2022/03/07 02:05:13;;;;;;;;;;;;;;;9.18;29.70;99756.53;4488915;31;34392;-63
2022/03/07 02:07:43;;;;;;;;;;;;;;;8.97;30.12;99767.75;4490036;31;33911;-63
2022/03/07 02:10:11;;;;;;;;;;;;;;;8.29;31.74;99758.00;4490330;31;35046;-63
2022/03/07 02:12:40;;;;;;;;;;;;;;;8.79;31.19;99756.47;4494176;31;34228;-63
2022/03/07 02:15:08;;;;;;;;;;;;;;;8.44;31.52;99748.16;4486861;31;32830;-64
2022/03/07 02:17:36;;;;;;;;;;;;;;;8.70;31.35;99758.91;4490916;31;32267;-63
2022/03/07 02:20:05;;;;;;;;;;;;;;;8.66;33.22;99755.59;4489905;31;35145;-63
2022/03/07 02:22:36;;;;;;;;;;;;;;;8.17;32.36;99748.97;4487777;31;35553;-63
2022/03/07 02:25:05;;;;;;;;;;;;;;;8.58;31.67;99748.13;4488062;31;33270;-64
2022/03/07 02:27:34;;;;;;;;;;;;;;;8.71;31.91;99752.62;4487905;31;33311;-65
2022/03/07 02:30:05;;;;;;;;;;;;;;;8.60;31.71;99754.22;4490140;31;34763;-63
2022/03/07 02:32:35;;;;;;;;;;;;;;;8.28;31.96;99750.09;4488728;31;34091;-65
2022/03/07 02:35:03;;;;;;;;;;;;;;;8.37;31.56;99750.34;4487901;31;35095;-63
2022/03/07 02:37:30;;;;;;;;;;;;;;;8.20;31.75;99750.59;4486140;31;34068;-64
2022/03/07 02:39:58;;;;;;;;;;;;;;;8.55;31.91;99745.66;4488345;31;33583;-63
2022/03/07 02:42:46;;;;;;;;;;;;;;;8.87;30.25;99750.66;4491666;31;34731;-63
2022/03/07 02:45:14;;;;;;;;;;;;;;;8.62;31.00;99749.63;4486075;31;32404;-65
2022/03/07 02:47:44;;;;;;;;;;;;;;;8.39;30.99;99744.97;4487008;31;35523;-63
2022/03/07 02:50:12;;;;;;;;;;;;;;;7.94;32.15;99749.63;4494366;31;34343;-63
2022/03/07 02:52:40;;;;;;;;;;;;;;;7.93;32.13;99754.09;4493799;31;34214;-63
2022/03/07 02:55:08;;;;;;;;;;;;;;;8.13;32.12;99754.63;4488092;31;34547;-63
2022/03/07 02:57:35;;;;;;;;;;;;;;;7.96;31.51;99762.81;4484037;31;33450;-63
2022/03/07 03:00:03;;;;;;;;;;;;;;;7.88;32.22;99766.00;4484302;31;32811;-64
2022/03/07 03:02:31;;;;;;;;;;;;;;;7.88;32.79;99766.84;4475939;31;33872;-63
2022/03/07 03:04:58;;;;;;;;;;;;;;;7.75;32.77;99763.25;4487033;31;34001;-63
2022/03/07 03:07:26;;;;;;;;;;;;;;;7.51;33.71;99767.41;4490542;31;33054;-65
2022/03/07 03:09:53;;;;;;;;;;;;;;;7.97;32.31;99762.75;4487069;31;32950;-64
2022/03/07 03:12:24;;;;;;;;;;;;;;;7.61;34.02;99769.44;4483619;31;33974;-63
2022/03/07 03:14:52;;;;;;;;;;;;;;;7.60;33.58;99765.03;4485231;31;34236;-63
2022/03/07 03:17:20;;;;;;;;;;;;;;;7.61;33.95;99773.91;4488715;31;32848;-64
2022/03/07 03:19:48;;;;;;;;;;;;;;;7.99;32.42;99768.81;4485956;31;35338;-63
2022/03/07 03:22:16;;;;;;;;;;;;;;;8.42;31.29;99775.91;4485272;31;32790;-64
2022/03/07 03:24:43;;;;;;;;;;;;;;;8.08;32.72;99770.03;4489961;31;34379;-64
2022/03/07 03:27:11;;;;;;;;;;;;;;;8.27;32.27;99780.37;4489163;31;33252;-63
2022/03/07 03:29:38;;;;;;;;;;;;;;;8.53;31.24;99784.91;4484867;31;35207;-63
2022/03/07 03:32:06;;;;;;;;;;;;;;;7.51;33.40;99783.41;4487318;31;34119;-63
2022/03/07 03:34:34;;;;;;;;;;;;;;;8.36;31.63;99783.31;4484468;31;34048;-64
2022/03/07 03:37:06;;;;;;;;;;;;;;;8.30;31.63;99780.19;4488560;31;32812;-63
2022/03/07 03:39:33;;;;;;;;;;;;;;;8.16;32.00;99781.94;4487387;31;33973;-63
2022/03/07 03:42:01;;;;;;;;;;;;;;;8.05;32.28;99784.41;4485586;31;34313;-63
2022/03/07 03:44:29;;;;;;;;;;;;;;;8.05;32.39;99792.41;4486460;31;35146;-63
2022/03/07 03:46:56;;;;;;;;;;;;;;;7.95;34.17;99783.28;4488119;31;34415;-63
2022/03/07 03:49:24;;;;;;;;;;;;;;;7.81;34.88;99788.66;4492182;31;34352;-63
2022/03/07 03:51:52;;;;;;;;;;;;;;;7.76;32.86;99785.41;4489652;31;35764;-63
2022/03/07 03:54:19;;;;;;;;;;;;;;;7.10;33.98;99800.94;4483215;31;34317;-62
2022/03/07 03:56:47;;;;;;;;;;;;;;;7.69;34.08;99785.78;4488680;31;34077;-63
2022/03/07 03:59:15;;;;;;;;;;;;;;;8.01;32.02;99782.91;4490267;31;33938;-63
2022/03/07 04:01:46;;;;;;;;;;;;;;;7.69;33.19;99791.12;4488643;31;34426;-63
2022/03/07 04:04:14;;;;;;;;;;;;;;;7.95;32.36;99788.63;4484083;31;34294;-63
2022/03/07 04:06:42;;;;;;;;;;;;;;;7.93;32.41;99793.22;4487221;31;33294;-62
2022/03/07 04:09:11;;;;;;;;;;;;;;;7.96;32.19;99785.03;4487245;31;35277;-63
2022/03/07 04:11:41;;;;;;;;;;;;;;;7.96;31.90;99784.16;4491369;31;33934;-63
2022/03/07 04:14:09;;;;;;;;;;;;;;;8.01;32.30;99780.25;4486775;31;34652;-63
2022/03/07 04:16:38;;;;;;;;;;;;;;;7.85;33.23;99779.50;4486259;31;33163;-62
2022/03/07 04:19:07;;;;;;;;;;;;;;;7.10;33.95;99784.12;4488286;31;33948;-63
2022/03/07 04:21:35;;;;;;;;;;;;;;;7.29;34.29;99783.84;4486207;31;35089;-63
2022/03/07 04:24:03;;;;;;;;;;;;;;;7.37;35.67;99786.91;4487994;31;34272;-63
2022/03/07 04:26:31;;;;;;;;;;;;;;;7.77;32.26;99779.13;4486527;31;33186;-63
2022/03/07 04:29:00;;;;;;;;;;;;;;;7.80;32.05;99778.94;4478676;31;32710;-63
2022/03/07 04:31:28;;;;;;;;;;;;;;;7.32;33.79;99778.34;4488162;31;34375;-63
2022/03/07 04:33:55;;;;;;;;;;;;;;;7.27;33.53;99786.63;4490906;31;34260;-63
2022/03/07 04:36:24;;;;;;;;;;;;;;;7.31;33.69;99787.28;4485416;31;34560;-63
2022/03/07 04:38:56;;;;;;;;;;;;;;;7.03;34.41;99796.94;4484989;31;34668;-63
2022/03/07 04:41:25;;;;;;;;;;;;;;;7.14;33.61;99796.28;4487100;31;35152;-63
2022/03/07 04:43:53;;;;;;;;;;;;;;;7.21;33.48;99793.16;4492186;31;34801;-63
2022/03/07 04:46:21;;;;;;;;;;;;;;;7.54;33.00;99792.06;4486242;31;34736;-63
2022/03/07 04:48:50;;;;;;;;;;;;;;;7.70;32.59;99794.63;4481696;31;35511;-64
2022/03/07 04:51:18;;;;;;;;;;;;;;;7.66;33.19;99791.31;4488350;31;34395;-64
2022/03/07 04:53:46;;;;;;;;;;;;;;;7.69;32.94;99788.44;4484115;31;34470;-64
2022/03/07 04:56:15;;;;;;;;;;;;;;;7.74;33.89;99788.19;4486399;31;32186;-63
2022/03/07 04:58:43;;;;;;;;;;;;;;;7.69;33.42;99799.09;4483405;31;33505;-64
2022/03/07 05:01:14;;;;;;;;;;;;;;;8.05;32.25;99788.91;4486019;31;35728;-63
2022/03/07 05:03:42;;;;;;;;;;;;;;;8.12;31.78;99791.09;4481513;31;33925;-64
2022/03/07 05:06:11;;;;;;;;;;;;;;;8.28;31.59;99785.63;4484309;31;33169;-63
2022/03/07 05:08:39;;;;;;;;;;;;;;;8.24;32.03;99783.25;4483850;31;33795;-64
2022/03/07 05:11:07;;;;;;;;;;;;;;;8.28;31.84;99780.31;4486698;31;34163;-63
2022/03/07 05:13:35;;;;;;;;;;;;;;;8.15;32.27;99796.22;4482379;31;33803;-64
2022/03/07 05:16:03;;;;;;;;;;;;;;;8.20;31.86;99795.94;4481865;31;33940;-63
2022/03/07 05:18:32;;;;;;;;;;;;;;;8.30;31.68;99799.69;4485118;31;32828;-63
2022/03/07 05:21:00;;;;;;;;;;;;;;;8.36;31.38;99799.31;4485582;31;34005;-63
2022/03/07 05:23:34;;;;;;;;;;;;;;;8.41;31.83;99796.41;4487129;31;33928;-64
2022/03/07 05:26:08;;;;;;;;;;;;;;;7.79;33.37;99795.87;4484460;31;32389;-64
2022/03/07 05:28:36;;;;;;;;;;;;;;;7.89;33.02;99795.19;4485588;31;34044;-64
2022/03/07 05:31:05;;;;;;;;;;;;;;;8.40;31.60;99800.00;4486018;31;34443;-63
2022/03/07 05:33:33;;;;;;;;;;;;;;;8.26;32.40;99798.19;4485808;31;34694;-64
2022/03/07 05:36:02;;;;;;;;;;;;;;;8.02;32.39;99797.94;4483048;31;34364;-64
2022/03/07 05:38:29;;;;;;;;;;;;;;;8.15;31.92;99801.56;4483791;31;32889;-63
2022/03/07 05:40:58;;;;;;;;;;;;;;;8.26;31.95;99802.69;4482958;31;34092;-63
2022/03/07 05:43:27;;;;;;;;;;;;;;;8.24;31.90;99801.91;4483901;31;35001;-63
2022/03/07 05:45:54;;;;;;;;;;;;;;;8.08;32.64;99800.22;4480992;31;34067;-64
2022/03/07 05:48:22;;;;;;;;;;;;;;;8.16;32.45;99803.28;4468637;31;34988;-63
2022/03/07 05:50:51;;;;;;;;;;;;;;;7.93;33.02;99801.22;4485696;31;34889;-62
2022/03/07 05:53:21;;;;;;;;;;;;;;;8.04;32.39;99803.19;4480348;31;34035;-62
2022/03/07 05:55:49;;;;;;;;;;;;;;;8.06;32.31;99802.16;4481253;31;33041;-63
2022/03/07 05:58:17;;;;;;;;;;;;;;;7.98;33.31;99796.44;4481701;31;34129;-62
2022/03/07 06:00:46;;;;;;;;;;;;;;;7.98;32.91;99804.44;4480972;31;34461;-63
2022/03/07 06:03:14;;;;;;;;;;;;;;;7.99;32.26;99798.13;4481438;31;34911;-65
2022/03/07 06:05:42;;;;;;;;;;;;;;;7.86;33.61;99803.37;4483742;31;33438;-64
2022/03/07 06:08:17;;;;;;;;;;;;;;;8.07;32.34;99803.84;4482721;31;35273;-64
2022/03/07 06:10:48;;;;;;;;;;;;;;;7.88;33.26;99801.47;4490314;31;33472;-64
2022/03/07 06:13:19;;;;;;;;;;;;;;;8.10;32.33;99808.13;4486380;31;34314;-65
2022/03/07 06:15:47;;;;;;;;;;;;;;;7.72;33.66;99808.72;4483408;31;33309;-64
2022/03/07 06:18:15;;;;;;;;;;;;;;;8.21;32.07;99808.28;4485533;31;32850;-66
2022/03/07 06:20:43;;;;;;;;;;;;;;;8.14;32.75;99810.50;4485540;31;34227;-64
2022/03/07 06:23:12;;;;;;;;;;;;;;;8.24;32.36;99818.75;4482684;31;34014;-67
2022/03/07 06:25:41;;;;;;;;;;;;;;;8.26;32.16;99814.19;4482617;31;33260;-64
2022/03/07 06:28:11;;;;;;;;;;;;;;;8.07;32.35;99819.00;4485228;31;33853;-63
2022/03/07 06:30:39;;;;;;;;;;;;;;;7.73;33.44;99817.56;4483658;31;35076;-64
2022/03/07 06:33:08;;;;;;;;;;;;;;;7.50;33.55;99827.81;4485376;31;35453;-64
2022/03/07 06:35:36;;;;;;;;;;;;;;;7.77;33.32;99827.97;4482484;31;32035;-64
2022/03/07 06:38:05;;;;;;;;;;;;;;;7.33;33.98;99823.53;4482848;31;33943;-64
2022/03/07 06:40:33;;;;;;;;;;;;;;;7.70;33.81;99831.94;4483065;31;35292;-64
2022/03/07 06:43:02;;;;;;;;;;;;;;;7.77;33.71;99827.06;4482847;31;33947;-66
2022/03/07 06:45:30;;;;;;;;;;;;;;;7.91;33.12;99824.44;4484092;31;35374;-64
2022/03/07 06:47:59;;;;;;;;;;;;;;;7.84;33.57;99829.28;4492755;31;32880;-66
2022/03/07 06:50:29;;;;;;;;;;;;;;;8.05;33.18;99820.88;4486592;31;34064;-64
2022/03/07 06:52:57;;;;;;;;;;;;;;;7.84;33.62;99828.44;4484746;31;34322;-65
2022/03/07 06:55:25;;;;;;;;;;;;;;;8.10;33.08;99830.31;4484484;31;33318;-66
2022/03/07 06:57:54;;;;;;;;;;;;;;;8.12;33.11;99828.41;4486010;31;35028;-65
2022/03/07 07:00:22;;;;;;;;;;;;;;;7.63;34.01;99830.59;4480969;31;34467;-65
2022/03/07 07:02:50;;;;;;;;;;;;;;;7.53;34.71;99834.78;4480165;31;33188;-67
2022/03/07 07:05:19;;;;;;;;;;;;;;;7.61;34.25;99833.37;4483865;31;33534;-66
2022/03/07 07:07:47;;;;;;;;;;;;;;;7.98;33.08;99835.56;4483673;31;34034;-65
2022/03/07 07:10:18;;;;;;;;;;;;;;;7.87;33.93;99841.56;4483873;31;33811;-65
2022/03/07 07:12:48;;;;;;;;;;;;;;;7.77;33.65;99835.94;4491660;31;33822;-66
2022/03/07 07:15:19;;;;;;;;;;;;;;;7.78;34.08;99834.13;4482469;31;32746;-64
2022/03/07 07:17:47;;;;;;;;;;;;;;;7.58;34.21;99832.72;4491695;31;32728;-64
2022/03/07 07:20:15;;;;;;;;;;;;;;;7.85;34.03;99838.12;4480562;31;35413;-66
2022/03/07 07:22:44;;;;;;;;;;;;;;;7.96;33.32;99833.00;4482334;31;33897;-64
2022/03/07 07:25:12;;;;;;;;;;;;;;;7.92;33.35;99840.31;4484450;31;31130;-65
2022/03/07 07:27:41;;;;;;;;;;;;;;;7.78;33.85;99834.13;4483264;31;33492;-64
2022/03/07 07:30:10;;;;;;;;;;;;;;;7.65;33.94;99845.53;4482116;31;33037;-64
2022/03/07 07:32:39;;;;;;;;;;;;;;;7.70;33.85;99839.91;4483590;31;34064;-66
2022/03/07 07:35:08;;;;;;;;;;;;;;;7.43;34.23;99845.97;4484657;31;33373;-64
2022/03/07 07:37:36;;;;;;;;;;;;;;;7.82;35.56;99856.97;4484662;31;33979;-64
2022/03/07 07:40:05;;;;;;;;;;;;;;;8.00;33.30;99866.50;4487931;31;34365;-64
2022/03/07 07:42:34;;;;;;;;;;;;;;;8.15;32.40;99865.56;4486928;31;33296;-64
2022/03/07 07:45:03;;;;;;;;;;;;;;;8.06;32.91;99868.78;4486430;31;32320;-66
2022/03/07 07:47:32;;;;;;;;;;;;;;;8.17;33.04;99863.63;4481088;31;33922;-64
2022/03/07 07:50:01;;;;;;;;;;;;;;;8.27;33.28;99860.38;4481247;31;35180;-66
2022/03/07 07:52:30;;;;;;;;;;;;;;;8.50;32.08;99865.13;4484844;31;32795;-65
2022/03/07 07:54:59;;;;;;;;;;;;;;;8.44;32.83;99875.34;4483522;31;33613;-65
2022/03/07 07:57:29;;;;;;;;;;;;;;;8.89;31.38;99873.31;4485094;31;34185;-65
2022/03/07 07:59:57;;;;;;;;;;;;;;;8.38;32.01;99876.59;4484717;31;33087;-66
2022/03/07 08:02:49;;;;;;;;;;;;;;;8.90;31.33;99886.56;4483670;31;33108;-65
2022/03/07 08:05:19;;;;;;;;;;;;;;;9.05;31.30;99882.91;4481294;31;33560;-65
2022/03/07 08:07:47;;;;;;;;;;;;;;;9.06;31.54;99889.94;4483095;31;34870;-66
2022/03/07 08:10:17;;;;;;;;;;;;;;;9.02;31.53;99900.91;4479791;31;34207;-65
2022/03/07 08:12:45;;;;;;;;;;;;;;;9.33;30.34;99895.25;4483271;31;33951;-65
2022/03/07 08:15:19;;;;;;;;;;;;;;;8.55;33.13;99897.72;4485583;31;34018;-67
2022/03/07 08:17:52;;;;;;;;;;;;;;;8.71;31.84;99902.91;4488285;31;34056;-66
2022/03/07 08:20:21;;;;;;;;;;;;;;;8.62;32.19;99904.38;4484885;31;34478;-67
2022/03/07 08:22:58;;;;;;;;;;;;;;;8.52;32.00;99899.72;4482080;31;33004;-65
2022/03/07 08:25:34;;;;;;;;;;;;;;;9.38;30.32;99902.97;4492052;31;33515;-64
2022/03/07 08:28:14;;;;;;;;;;;;;;;9.36;30.84;99899.53;4486416;31;33962;-66
2022/03/07 08:30:50;;;;;;;;;;;;;;;8.57;31.91;99901.16;4485866;31;33033;-65
2022/03/07 08:33:36;;;;;;;;;;;;;;;8.39;32.29;99888.97;4484218;31;34260;-64
2022/03/07 08:36:13;;;;;;;;;;;;;;;9.14;30.99;99881.41;4484970;31;33602;-64
2022/03/07 08:38:58;;;;;;;;;;;;;;;9.62;29.81;99883.53;4476013;31;34170;-65
2022/03/07 08:41:43;;;;;;;;;;;;;;;8.68;31.90;99872.91;4484765;31;34409;-64
2022/03/07 08:44:18;;;;;;;;;;;;;;;9.62;29.82;99864.84;4483574;31;33339;-65
2022/03/07 08:47:04;;;;;;;;;;;;;;;9.60;30.65;99872.09;4483426;31;33162;-65
2022/03/07 08:49:48;;;;;;;;;;;;;;;9.16;30.38;99865.31;4483870;31;33852;-64
2022/03/07 08:52:27;;;;;;;;;;;;;;;8.95;31.06;99868.41;4489028;31;33223;-64
2022/03/07 08:54:59;;;;;;;;;;;;;;;9.26;30.72;99874.41;4482230;31;35548;-68
2022/03/07 08:57:32;;;;;;;;;;;;;;;9.43;30.37;99875.94;4485336;31;31873;-64
2022/03/07 09:00:12;;;;;;;;;;;;;;;9.18;30.72;99874.94;4484799;31;33171;-65
2022/03/07 09:02:59;;;;;;;;;;;;;;;9.41;31.44;99872.53;4480985;31;34246;-64
2022/03/07 09:05:41;;;;;;;;;;;;;;;9.03;31.83;99879.47;4486167;31;33048;-64
2022/03/07 09:08:16;;;;;;;;;;;;;;;9.23;31.19;99882.62;4486794;31;34194;-65
2022/03/07 09:10:54;;;;;;;;;;;;;;;9.53;30.95;99885.91;4487153;31;33896;-65
2022/03/07 09:13:29;;;;;;;;;;;;;;;9.50;30.87;99882.56;4487883;31;34550;-65
2022/03/07 09:16:07;;;;;;;;;;;;;;;8.43;31.92;99870.97;4489083;31;34005;-65
2022/03/07 09:18:44;;;;;;;;;;;;;;;9.15;30.88;99866.25;4488096;31;33449;-65
2022/03/07 09:21:21;;;;;;;;;;;;;;;9.23;30.19;99863.94;4484644;31;32874;-65
2022/03/07 09:24:06;;;;;;;;;;;;;;;10.16;29.35;99865.47;4486807;31;33243;-65
2022/03/07 09:26:43;;;;;;;;;;;;;;;9.17;31.64;99864.34;4484746;31;33553;-65
2022/03/07 09:29:19;;;;;;;;;;;;;;;9.74;32.16;99864.84;4486275;31;32277;-65
2022/03/07 09:31:57;;;;;;;;;;;;;;;9.63;30.73;99863.87;4485889;31;34333;-64
2022/03/07 09:34:37;;;;;;;;;;;;;;;8.79;32.85;99862.38;4484745;31;33353;-65
2022/03/07 09:37:12;;;;;;;;;;;;;;;9.62;30.63;99864.84;4486621;31;34269;-64
2022/03/07 09:39:54;;;;;;;;;;;;;;;9.51;31.44;99866.44;4485946;31;32382;-66
2022/03/07 09:42:31;;;;;;;;;;;;;;;9.78;30.82;99868.16;4488291;31;34153;-65
2022/03/07 09:45:02;;;;;;;;;;;;;;;9.86;30.11;99873.84;4489946;31;33975;-64
2022/03/07 09:47:41;;;;;;;;;;;;;;;9.31;30.80;99862.47;4484335;31;32871;-65
2022/03/07 09:50:20;;;;;;;;;;;;;;;9.95;30.39;99856.28;4492460;31;33197;-65
2022/03/07 09:52:57;;;;;;;;;;;;;;;9.79;30.90;99861.84;4484058;31;33199;-65
2022/03/07 09:55:33;;;;;;;;;;;;;;;9.60;31.20;99856.94;4487703;31;35516;-64
2022/03/07 09:58:09;;;;;;;;;;;;;;;9.29;32.04;99864.37;4485830;31;35583;-67
2022/03/07 10:00:41;;;;;;;;;;;;;;;8.92;32.12;99863.28;4488786;31;34395;-64
2022/03/07 10:03:14;;;;;;;;;;;;;;;8.95;32.31;99867.56;4488894;31;32812;-66
2022/03/07 10:05:54;;;;;;;;;;;;;;;9.05;31.53;99858.88;4486655;31;33040;-64
2022/03/07 10:08:25;;;;;;;;;;;;;;;9.43;32.29;99863.41;4486617;31;33036;-64
2022/03/07 10:11:10;;;;;;;;;;;;;;;9.45;31.02;99864.19;4484360;31;33351;-64
2022/03/07 10:14:01;;;;;;;;;;;;;;;9.24;31.38;99865.63;4488347;31;35251;-65
2022/03/07 10:16:40;;;;;;;;;;;;;;;8.65;32.26;99857.97;4486338;31;32716;-64
2022/03/07 10:19:17;;;;;;;;;;;;;;;8.78;32.29;99860.69;4486006;31;33846;-63
2022/03/07 10:21:51;;;;;;;;;;;;;;;8.59;33.58;99861.88;4487472;31;33468;-64
2022/03/07 10:24:37;;;;;;;;;;;;;;;8.39;33.11;99849.81;4484170;31;32900;-64
2022/03/07 10:27:37;;;;;;;;;;;;;;;9.07;32.60;99848.06;4485559;31;33530;-65
2022/03/07 10:30:17;;;;;;;;;;;;;;;8.17;34.18;99855.63;4488754;31;33137;-63
2022/03/07 10:32:56;;;;;;;;;;;;;;;9.37;31.95;99850.47;4484640;31;32871;-66
2022/03/07 10:35:32;;;;;;;;;;;;;;;9.19;31.87;99849.94;4489666;31;32999;-64
2022/03/07 10:38:09;;;;;;;;;;;;;;;9.68;30.41;99853.72;4483215;31;34110;-67
2022/03/07 10:40:46;;;;;;;;;;;;;;;9.69;30.99;99840.25;4487549;31;32845;-64
2022/03/07 10:43:28;;;;;;;;;;;;;;;9.69;30.07;99844.75;4483843;31;33328;-64
2022/03/07 10:46:06;;;;;;;;;;;;;;;9.52;30.75;99837.91;4489657;31;34833;-65
2022/03/07 10:48:43;;;;;;;;;;;;;;;8.68;31.98;99839.06;4491904;31;34091;-64
2022/03/07 10:51:18;;;;;;;;;;;;;;;8.63;32.67;99838.50;4487683;31;32535;-65
2022/03/07 10:54:07;;;;;;;;;;;;;;;8.10;32.63;99832.13;4486772;31;34852;-66
2022/03/07 10:56:53;;;;;;;;;;;;;;;7.96;34.06;99824.13;4489293;31;32799;-65
2022/03/07 10:59:33;;;;;;;;;;;;;;;8.00;32.80;99823.84;4486467;31;33263;-65
2022/03/07 11:02:14;;;;;;;;;;;;;;;8.19;33.11;99814.69;4494656;31;34452;-64
2022/03/07 11:04:57;;;;;;;;;;;;;;;8.01;33.66;99814.91;4486685;31;32043;-65
2022/03/07 11:07:37;;;;;;;;;;;;;;;7.98;33.52;99804.44;4473276;31;34099;-65
2022/03/07 11:10:13;;;;;;;;;;;;;;;8.36;34.66;99806.47;4486436;31;34845;-66
2022/03/07 11:12:48;;;;;;;;;;;;;;;9.10;32.54;99806.00;4487247;31;33191;-64
2022/03/07 11:15:28;;;;;;;;;;;;;;;8.91;32.75;99802.00;4487895;31;33374;-64
2022/03/07 11:18:04;;;;;;;;;;;;;;;8.24;33.84;99801.91;4472253;31;34165;-65
2022/03/07 11:20:45;;;;;;;;;;;;;;;8.22;32.78;99798.47;4474787;31;36112;-65
2022/03/07 11:23:27;;;;;;;;;;;;;;;9.10;33.00;99798.00;4486172;31;33204;-65
2022/03/07 11:26:08;;;;;;;;;;;;;;;9.43;31.14;99785.09;4483771;31;32756;-67
2022/03/07 11:28:51;;;;;;;;;;;;;;;9.31;31.35;99790.34;4477333;31;34387;-66
2022/03/07 11:31:23;;;;;;;;;;;;;;;8.85;31.27;99784.59;4488475;31;33752;-65
2022/03/07 11:34:08;;;;;;;;;;;;;;;9.66;30.33;99770.13;4483416;31;33133;-67
2022/03/07 11:36:48;;;;;;;;;;;;;;;9.25;30.93;99776.56;4485701;31;33239;-65
2022/03/07 11:39:32;;;;;;;;;;;;;;;9.14;32.43;99769.25;4484889;31;32865;-65
2022/03/07 11:42:17;;;;;;;;;;;;;;;9.32;31.27;99772.50;4487242;31;33121;-65
2022/03/07 11:45:04;;;;;;;;;;;;;;;9.33;31.38;99771.53;4484611;31;34048;-65
2022/03/07 11:47:46;;;;;;;;;;;;;;;10.11;29.58;99762.44;4484056;31;33355;-65
2022/03/07 11:50:27;;;;;;;;;;;;;;;10.82;29.64;99755.44;4485788;31;33535;-64
2022/03/07 11:53:03;;;;;;;;;;;;;;;10.86;28.36;99754.25;4472792;31;32973;-64
2022/03/07 11:55:44;;;;;;;;;;;;;;;10.59;28.20;99757.16;4484293;31;32828;-64
2022/03/07 11:58:36;;;;;;;;;;;;;;;9.40;30.79;99759.44;4485266;31;33231;-64
2022/03/07 12:01:16;;;;;;;;;;;;;;;10.17;29.19;99757.50;4486978;31;32799;-67
2022/03/07 12:03:54;;;;;;;;;;;;;;;10.22;30.19;99757.19;4487396;31;33235;-64
2022/03/07 12:06:40;;;;;;;;;;;;;;;10.84;28.01;99751.69;4486105;31;34516;-66
2022/03/07 12:09:24;;;;;;;;;;;;;;;11.02;28.02;99753.94;4484760;31;34138;-66
2022/03/07 12:12:02;;;;;;;;;;;;;;;10.58;27.99;99752.78;4484285;31;32917;-64
2022/03/07 12:14:43;;;;;;;;;;;;;;;10.59;29.09;99754.47;4482630;31;34076;-64
2022/03/07 12:17:28;;;;;;;;;;;;;;;10.43;29.33;99755.66;4485483;31;33164;-63
2022/03/07 12:20:04;;;;;;;;;;;;;;;10.16;28.86;99747.78;4482404;31;32193;-64
2022/03/07 12:22:38;;;;;;;;;;;;;;;10.57;28.33;99745.75;4490725;31;33651;-63
2022/03/07 12:25:20;;;;;;;;;;;;;;;9.22;30.35;99747.38;4472440;31;34475;-64
2022/03/07 12:28:03;;;;;;;;;;;;;;;9.95;29.01;99734.16;4483690;31;34016;-64
2022/03/07 12:30:38;;;;;;;;;;;;;;;10.20;28.91;99733.22;4483331;31;33052;-63
2022/03/07 12:33:15;;;;;;;;;;;;;;;10.55;28.87;99734.28;4484549;31;33770;-71
2022/03/07 12:35:48;;;;;;;;;;;;;;;11.48;27.81;99726.25;4484929;31;35641;-64
2022/03/07 12:38:30;;;;;;;;;;;;;;;11.26;26.81;99730.59;4489645;31;34592;-63
2022/03/07 12:41:12;;;;;;;;;;;;;;;10.11;28.50;99725.00;4484074;31;33535;-64
2022/03/07 12:43:51;;;;;;;;;;;;;;;10.15;30.32;99726.50;4487413;31;34776;-64
2022/03/07 12:46:27;;;;;;;;;;;;;;;10.66;28.30;99735.19;4486561;31;33448;-63
2022/03/07 12:49:02;;;;;;;;;;;;;;;9.85;29.21;99734.91;4486978;31;33212;-65
2022/03/07 12:51:33;;;;;;;;;;;;;;;10.55;28.86;99729.78;4485573;31;33413;-64
2022/03/07 12:54:06;;;;;;;;;;;;;;;11.17;28.04;99725.94;4487456;31;34455;-64
2022/03/07 12:56:44;;;;;;;;;;;;;;;10.96;27.42;99725.78;4488335;31;34439;-67
2022/03/07 12:59:24;;;;;;;;;;;;;;;10.15;30.11;99726.50;4485233;31;34017;-66
2022/03/07 13:01:54;;;;;;;;;;;;;;;10.94;28.18;99725.06;4486862;31;33524;-63
2022/03/07 13:04:27;;;;;;;;;;;;;;;10.25;29.11;99733.75;4484413;31;33109;-64
2022/03/07 13:07:06;;;;;;;;;;;;;;;10.56;30.26;99728.84;4489799;31;32947;-67
2022/03/07 13:09:39;;;;;;;;;;;;;;;10.07;28.47;99728.88;4486577;31;34160;-64
2022/03/07 13:12:10;;;;;;;;;;;;;;;9.92;28.59;99723.69;4485558;31;33471;-64
2022/03/07 13:14:40;;;;;;;;;;;;;;;10.68;27.49;99733.22;4489642;31;32755;-63
2022/03/07 13:17:18;;;;;;;;;;;;;;;11.17;27.06;99731.31;4485912;31;34235;-66
2022/03/07 13:19:49;;;;;;;;;;;;;;;11.25;26.59;99728.06;4481842;31;34170;-64
2022/03/07 13:22:23;;;;;;;;;;;;;;;10.03;30.48;99741.63;4487049;31;32155;-63